sensor_id;sensor_type;location;lat;lon;timestamp;P1;durP1;ratioP1;P2;durP2;ratioP2
62463;SDS011;48512;48.552;9.380;2022-08-21T00:01:12;6.20;;;2.90;;
62463;SDS011;48512;48.552;9.380;2022-08-21T00:03:40;5.57;;;3.03;;
62463;SDS011;48512;48.552;9.380;2022-08-21T00:06:06;8.82;;;4.18;;
62463;SDS011;48512;48.552;9.380;2022-08-21T00:08:32;7.40;;;4.30;;
62463;SDS011;48512;48.552;9.380;2022-08-21T00:10:58;9.55;;;4.32;;
62463;SDS011;48512;48.552;9.380;2022-08-21T00:13:24;5.60;;;3.25;;
62463;SDS011;48512;48.552;9.380;2022-08-21T00:15:50;6.45;;;3.33;;
62463;SDS011;48512;48.552;9.380;2022-08-21T00:18:16;6.90;;;3.15;;
62463;SDS011;48512;48.552;9.380;2022-08-21T00:20:42;5.38;;;3.05;;
62463;SDS011;48512;48.552;9.380;2022-08-21T00:23:08;5.45;;;2.83;;
62463;SDS011;48512;48.552;9.380;2022-08-21T00:25:34;5.10;;;2.85;;
62463;SDS011;48512;48.552;9.380;2022-08-21T00:27:59;7.88;;;2.97;;
62463;SDS011;48512;48.552;9.380;2022-08-21T00:30:27;5.30;;;2.85;;
62463;SDS011;48512;48.552;9.380;2022-08-21T00:32:53;6.43;;;2.85;;
62463;SDS011;48512;48.552;9.380;2022-08-21T00:35:21;5.53;;;3.00;;
62463;SDS011;48512;48.552;9.380;2022-08-21T00:37:49;6.93;;;3.17;;
62463;SDS011;48512;48.552;9.380;2022-08-21T00:40:16;8.55;;;3.60;;
62463;SDS011;48512;48.552;9.380;2022-08-21T00:42:45;4.40;;;2.88;;
62463;SDS011;48512;48.552;9.380;2022-08-21T00:45:11;6.78;;;3.08;;
62463;SDS011;48512;48.552;9.380;2022-08-21T00:47:37;6.70;;;2.97;;
62463;SDS011;48512;48.552;9.380;2022-08-21T00:50:04;5.32;;;2.97;;
62463;SDS011;48512;48.552;9.380;2022-08-21T00:52:32;7.13;;;3.05;;
62463;SDS011;48512;48.552;9.380;2022-08-21T00:54:59;6.50;;;2.85;;
62463;SDS011;48512;48.552;9.380;2022-08-21T00:57:26;4.93;;;2.97;;
62463;SDS011;48512;48.552;9.380;2022-08-21T01:02:22;6.90;;;3.13;;
62463;SDS011;48512;48.552;9.380;2022-08-21T01:04:48;5.93;;;3.13;;
62463;SDS011;48512;48.552;9.380;2022-08-21T01:07:14;6.78;;;3.08;;
62463;SDS011;48512;48.552;9.380;2022-08-21T01:09:40;5.30;;;3.00;;
62463;SDS011;48512;48.552;9.380;2022-08-21T01:12:06;6.22;;;3.20;;
62463;SDS011;48512;48.552;9.380;2022-08-21T01:14:31;5.95;;;3.00;;
62463;SDS011;48512;48.552;9.380;2022-08-21T01:16:58;6.40;;;3.33;;
62463;SDS011;48512;48.552;9.380;2022-08-21T01:19:26;5.28;;;3.17;;
62463;SDS011;48512;48.552;9.380;2022-08-21T01:21:52;7.78;;;3.20;;
62463;SDS011;48512;48.552;9.380;2022-08-21T01:24:18;6.38;;;3.00;;
62463;SDS011;48512;48.552;9.380;2022-08-21T01:26:44;6.20;;;3.10;;
62463;SDS011;48512;48.552;9.380;2022-08-21T01:32:03;3.35;;;2.60;;
62463;SDS011;48512;48.552;9.380;2022-08-21T01:34:41;5.13;;;3.10;;
62463;SDS011;48512;48.552;9.380;2022-08-21T01:37:09;6.80;;;3.20;;
62463;SDS011;48512;48.552;9.380;2022-08-21T01:39:36;6.25;;;3.17;;
62463;SDS011;48512;48.552;9.380;2022-08-21T01:42:02;5.75;;;3.17;;
62463;SDS011;48512;48.552;9.380;2022-08-21T01:44:28;4.68;;;2.85;;
62463;SDS011;48512;48.552;9.380;2022-08-21T01:46:54;5.60;;;3.00;;
62463;SDS011;48512;48.552;9.380;2022-08-21T01:49:20;5.80;;;2.75;;
62463;SDS011;48512;48.552;9.380;2022-08-21T01:51:46;6.90;;;3.15;;
62463;SDS011;48512;48.552;9.380;2022-08-21T01:54:11;7.53;;;3.40;;
62463;SDS011;48512;48.552;9.380;2022-08-21T01:56:40;5.30;;;3.42;;
62463;SDS011;48512;48.552;9.380;2022-08-21T01:59:08;7.28;;;3.20;;
62463;SDS011;48512;48.552;9.380;2022-08-21T02:01:34;5.78;;;2.95;;
62463;SDS011;48512;48.552;9.380;2022-08-21T02:03:59;6.40;;;3.20;;
62463;SDS011;48512;48.552;9.380;2022-08-21T02:06:25;5.43;;;3.35;;
62463;SDS011;48512;48.552;9.380;2022-08-21T02:08:52;7.85;;;3.10;;
62463;SDS011;48512;48.552;9.380;2022-08-21T02:11:17;4.72;;;3.00;;
62463;SDS011;48512;48.552;9.380;2022-08-21T02:13:43;7.40;;;3.50;;
62463;SDS011;48512;48.552;9.380;2022-08-21T02:16:08;7.95;;;3.33;;
62463;SDS011;48512;48.552;9.380;2022-08-21T02:18:34;4.72;;;3.28;;
62463;SDS011;48512;48.552;9.380;2022-08-21T02:21:00;7.47;;;3.30;;
62463;SDS011;48512;48.552;9.380;2022-08-21T02:23:26;6.30;;;3.40;;
62463;SDS011;48512;48.552;9.380;2022-08-21T02:25:51;7.43;;;3.38;;
62463;SDS011;48512;48.552;9.380;2022-08-21T02:28:17;8.52;;;3.70;;
62463;SDS011;48512;48.552;9.380;2022-08-21T02:30:43;6.63;;;3.63;;
62463;SDS011;48512;48.552;9.380;2022-08-21T02:33:11;5.78;;;3.35;;
62463;SDS011;48512;48.552;9.380;2022-08-21T02:35:39;5.18;;;3.22;;
62463;SDS011;48512;48.552;9.380;2022-08-21T02:38:08;6.05;;;3.75;;
62463;SDS011;48512;48.552;9.380;2022-08-21T02:40:37;4.43;;;3.53;;
62463;SDS011;48512;48.552;9.380;2022-08-21T02:43:05;10.00;;;4.28;;
62463;SDS011;48512;48.552;9.380;2022-08-21T02:45:32;9.65;;;3.58;;
62463;SDS011;48512;48.552;9.380;2022-08-21T02:48:00;5.88;;;2.95;;
62463;SDS011;48512;48.552;9.380;2022-08-21T02:52:55;4.68;;;3.05;;
62463;SDS011;48512;48.552;9.380;2022-08-21T02:55:22;7.25;;;3.38;;
62463;SDS011;48512;48.552;9.380;2022-08-21T03:00:16;5.72;;;3.63;;
62463;SDS011;48512;48.552;9.380;2022-08-21T03:02:41;7.80;;;3.58;;
62463;SDS011;48512;48.552;9.380;2022-08-21T03:05:08;4.63;;;3.28;;
62463;SDS011;48512;48.552;9.380;2022-08-21T03:07:36;5.82;;;3.53;;
62463;SDS011;48512;48.552;9.380;2022-08-21T03:10:03;8.88;;;3.53;;
62463;SDS011;48512;48.552;9.380;2022-08-21T03:12:42;4.65;;;3.40;;
62463;SDS011;48512;48.552;9.380;2022-08-21T03:15:09;6.40;;;3.80;;
62463;SDS011;48512;48.552;9.380;2022-08-21T03:17:36;5.30;;;3.60;;
62463;SDS011;48512;48.552;9.380;2022-08-21T03:20:03;7.03;;;3.47;;
62463;SDS011;48512;48.552;9.380;2022-08-21T03:22:30;6.32;;;3.90;;
62463;SDS011;48512;48.552;9.380;2022-08-21T03:24:57;5.30;;;3.28;;
62463;SDS011;48512;48.552;9.380;2022-08-21T03:27:23;7.43;;;3.85;;
62463;SDS011;48512;48.552;9.380;2022-08-21T03:29:49;5.78;;;3.85;;
62463;SDS011;48512;48.552;9.380;2022-08-21T03:32:15;4.40;;;3.33;;
62463;SDS011;48512;48.552;9.380;2022-08-21T03:34:40;6.72;;;3.80;;
62463;SDS011;48512;48.552;9.380;2022-08-21T03:37:06;7.80;;;3.67;;
62463;SDS011;48512;48.552;9.380;2022-08-21T03:39:33;4.40;;;3.67;;
62463;SDS011;48512;48.552;9.380;2022-08-21T03:41:59;6.30;;;3.88;;
62463;SDS011;48512;48.552;9.380;2022-08-21T03:44:25;8.02;;;3.70;;
62463;SDS011;48512;48.552;9.380;2022-08-21T03:46:53;5.10;;;3.53;;
62463;SDS011;48512;48.552;9.380;2022-08-21T03:49:18;5.22;;;3.63;;
62463;SDS011;48512;48.552;9.380;2022-08-21T03:51:44;8.18;;;3.60;;
62463;SDS011;48512;48.552;9.380;2022-08-21T03:54:09;6.97;;;3.40;;
62463;SDS011;48512;48.552;9.380;2022-08-21T03:56:34;9.07;;;3.67;;
62463;SDS011;48512;48.552;9.380;2022-08-21T03:59:00;7.88;;;3.70;;
62463;SDS011;48512;48.552;9.380;2022-08-21T04:01:27;7.22;;;3.45;;
62463;SDS011;48512;48.552;9.380;2022-08-21T04:03:52;9.00;;;3.20;;
62463;SDS011;48512;48.552;9.380;2022-08-21T04:06:18;5.35;;;3.17;;
62463;SDS011;48512;48.552;9.380;2022-08-21T04:08:43;5.95;;;3.20;;
62463;SDS011;48512;48.552;9.380;2022-08-21T04:11:09;7.75;;;3.70;;
62463;SDS011;48512;48.552;9.380;2022-08-21T04:13:37;6.68;;;3.42;;
62463;SDS011;48512;48.552;9.380;2022-08-21T04:16:03;12.00;;;3.67;;
62463;SDS011;48512;48.552;9.380;2022-08-21T04:18:29;7.80;;;3.65;;
62463;SDS011;48512;48.552;9.380;2022-08-21T04:20:55;8.27;;;3.60;;
62463;SDS011;48512;48.552;9.380;2022-08-21T04:23:22;5.18;;;3.80;;
62463;SDS011;48512;48.552;9.380;2022-08-21T04:25:48;7.95;;;3.22;;
62463;SDS011;48512;48.552;9.380;2022-08-21T04:28:14;7.63;;;3.78;;
62463;SDS011;48512;48.552;9.380;2022-08-21T04:30:39;7.13;;;3.90;;
62463;SDS011;48512;48.552;9.380;2022-08-21T04:33:05;8.88;;;3.28;;
62463;SDS011;48512;48.552;9.380;2022-08-21T04:35:30;6.25;;;4.00;;
62463;SDS011;48512;48.552;9.380;2022-08-21T04:37:56;6.65;;;3.78;;
62463;SDS011;48512;48.552;9.380;2022-08-21T04:40:23;6.82;;;3.97;;
62463;SDS011;48512;48.552;9.380;2022-08-21T04:45:20;8.98;;;4.43;;
62463;SDS011;48512;48.552;9.380;2022-08-21T04:47:50;6.57;;;3.90;;
62463;SDS011;48512;48.552;9.380;2022-08-21T04:50:17;9.15;;;4.00;;
62463;SDS011;48512;48.552;9.380;2022-08-21T04:52:44;5.70;;;3.40;;
62463;SDS011;48512;48.552;9.380;2022-08-21T04:55:10;6.50;;;3.70;;
62463;SDS011;48512;48.552;9.380;2022-08-21T04:57:36;7.93;;;4.00;;
62463;SDS011;48512;48.552;9.380;2022-08-21T05:00:02;7.80;;;3.58;;
62463;SDS011;48512;48.552;9.380;2022-08-21T05:02:29;7.45;;;3.75;;
62463;SDS011;48512;48.552;9.380;2022-08-21T05:04:57;5.45;;;4.20;;
62463;SDS011;48512;48.552;9.380;2022-08-21T05:07:24;8.80;;;4.03;;
62463;SDS011;48512;48.552;9.380;2022-08-21T05:09:53;9.57;;;4.13;;
62463;SDS011;48512;48.552;9.380;2022-08-21T05:12:18;7.38;;;4.22;;
62463;SDS011;48512;48.552;9.380;2022-08-21T05:14:44;9.50;;;3.55;;
62463;SDS011;48512;48.552;9.380;2022-08-21T05:17:10;7.60;;;4.00;;
62463;SDS011;48512;48.552;9.380;2022-08-21T05:19:35;6.60;;;3.95;;
62463;SDS011;48512;48.552;9.380;2022-08-21T05:22:01;7.10;;;4.18;;
62463;SDS011;48512;48.552;9.380;2022-08-21T05:24:26;6.07;;;3.67;;
62463;SDS011;48512;48.552;9.380;2022-08-21T05:26:53;6.70;;;4.00;;
62463;SDS011;48512;48.552;9.380;2022-08-21T05:29:18;8.30;;;3.88;;
62463;SDS011;48512;48.552;9.380;2022-08-21T05:31:44;5.85;;;4.03;;
62463;SDS011;48512;48.552;9.380;2022-08-21T05:34:10;5.13;;;3.60;;
62463;SDS011;48512;48.552;9.380;2022-08-21T05:36:37;9.25;;;3.75;;
62463;SDS011;48512;48.552;9.380;2022-08-21T05:39:02;7.50;;;4.10;;
62463;SDS011;48512;48.552;9.380;2022-08-21T05:41:28;10.40;;;4.18;;
62463;SDS011;48512;48.552;9.380;2022-08-21T05:43:54;8.60;;;4.30;;
62463;SDS011;48512;48.552;9.380;2022-08-21T05:46:19;6.90;;;4.10;;
62463;SDS011;48512;48.552;9.380;2022-08-21T05:48:45;5.10;;;4.30;;
62463;SDS011;48512;48.552;9.380;2022-08-21T05:51:11;10.95;;;4.68;;
62463;SDS011;48512;48.552;9.380;2022-08-21T05:53:38;6.13;;;4.25;;
62463;SDS011;48512;48.552;9.380;2022-08-21T05:56:04;7.15;;;4.32;;
62463;SDS011;48512;48.552;9.380;2022-08-21T05:58:32;11.00;;;5.07;;
62463;SDS011;48512;48.552;9.380;2022-08-21T06:00:58;8.60;;;4.40;;
62463;SDS011;48512;48.552;9.380;2022-08-21T06:03:29;8.00;;;4.97;;
62463;SDS011;48512;48.552;9.380;2022-08-21T06:05:56;9.30;;;5.22;;
62463;SDS011;48512;48.552;9.380;2022-08-21T06:08:22;9.35;;;4.75;;
62463;SDS011;48512;48.552;9.380;2022-08-21T06:10:49;9.70;;;4.25;;
62463;SDS011;48512;48.552;9.380;2022-08-21T06:13:16;9.25;;;4.60;;
62463;SDS011;48512;48.552;9.380;2022-08-21T06:15:43;9.02;;;4.82;;
62463;SDS011;48512;48.552;9.380;2022-08-21T06:18:09;9.98;;;5.13;;
62463;SDS011;48512;48.552;9.380;2022-08-21T06:20:35;7.72;;;5.05;;
62463;SDS011;48512;48.552;9.380;2022-08-21T06:23:01;10.15;;;5.20;;
62463;SDS011;48512;48.552;9.380;2022-08-21T06:25:27;7.45;;;4.15;;
62463;SDS011;48512;48.552;9.380;2022-08-21T06:27:53;9.73;;;4.40;;
62463;SDS011;48512;48.552;9.380;2022-08-21T06:30:24;9.45;;;5.45;;
62463;SDS011;48512;48.552;9.380;2022-08-21T06:32:50;10.05;;;5.50;;
62463;SDS011;48512;48.552;9.380;2022-08-21T06:35:15;12.93;;;4.80;;
62463;SDS011;48512;48.552;9.380;2022-08-21T06:37:40;9.68;;;5.13;;
62463;SDS011;48512;48.552;9.380;2022-08-21T06:40:06;10.05;;;5.00;;
62463;SDS011;48512;48.552;9.380;2022-08-21T06:42:32;10.25;;;4.55;;
62463;SDS011;48512;48.552;9.380;2022-08-21T06:44:57;9.55;;;4.55;;
62463;SDS011;48512;48.552;9.380;2022-08-21T06:47:23;7.40;;;4.93;;
62463;SDS011;48512;48.552;9.380;2022-08-21T06:49:48;10.25;;;4.60;;
62463;SDS011;48512;48.552;9.380;2022-08-21T06:52:14;8.15;;;4.90;;
62463;SDS011;48512;48.552;9.380;2022-08-21T06:54:39;10.77;;;4.60;;
62463;SDS011;48512;48.552;9.380;2022-08-21T06:57:05;8.13;;;4.07;;
62463;SDS011;48512;48.552;9.380;2022-08-21T06:59:31;12.65;;;5.03;;
62463;SDS011;48512;48.552;9.380;2022-08-21T07:01:57;10.25;;;4.82;;
62463;SDS011;48512;48.552;9.380;2022-08-21T07:04:24;7.40;;;4.40;;
62463;SDS011;48512;48.552;9.380;2022-08-21T07:06:49;9.38;;;4.85;;
62463;SDS011;48512;48.552;9.380;2022-08-21T07:09:14;8.68;;;4.57;;
62463;SDS011;48512;48.552;9.380;2022-08-21T07:11:40;8.82;;;4.57;;
62463;SDS011;48512;48.552;9.380;2022-08-21T07:14:06;8.00;;;4.00;;
62463;SDS011;48512;48.552;9.380;2022-08-21T07:16:31;8.73;;;4.25;;
62463;SDS011;48512;48.552;9.380;2022-08-21T07:18:56;7.18;;;4.60;;
62463;SDS011;48512;48.552;9.380;2022-08-21T07:21:22;5.32;;;4.00;;
62463;SDS011;48512;48.552;9.380;2022-08-21T07:23:49;5.90;;;4.07;;
62463;SDS011;48512;48.552;9.380;2022-08-21T07:26:21;8.77;;;4.80;;
62463;SDS011;48512;48.552;9.380;2022-08-21T07:28:48;9.30;;;5.18;;
62463;SDS011;48512;48.552;9.380;2022-08-21T07:31:14;9.82;;;5.57;;
62463;SDS011;48512;48.552;9.380;2022-08-21T07:33:41;14.23;;;4.68;;
62463;SDS011;48512;48.552;9.380;2022-08-21T07:36:07;10.05;;;4.20;;
62463;SDS011;48512;48.552;9.380;2022-08-21T07:38:32;10.27;;;4.10;;
62463;SDS011;48512;48.552;9.380;2022-08-21T07:40:59;8.50;;;4.30;;
62463;SDS011;48512;48.552;9.380;2022-08-21T07:43:27;8.82;;;4.85;;
62463;SDS011;48512;48.552;9.380;2022-08-21T07:45:53;8.77;;;4.63;;
62463;SDS011;48512;48.552;9.380;2022-08-21T07:48:22;8.25;;;4.32;;
62463;SDS011;48512;48.552;9.380;2022-08-21T07:50:48;13.10;;;4.13;;
62463;SDS011;48512;48.552;9.380;2022-08-21T07:53:15;9.35;;;5.03;;
62463;SDS011;48512;48.552;9.380;2022-08-21T07:55:40;7.03;;;4.28;;
62463;SDS011;48512;48.552;9.380;2022-08-21T07:58:06;9.73;;;4.80;;
62463;SDS011;48512;48.552;9.380;2022-08-21T08:00:31;7.78;;;3.90;;
62463;SDS011;48512;48.552;9.380;2022-08-21T08:02:57;9.13;;;4.75;;
62463;SDS011;48512;48.552;9.380;2022-08-21T08:05:25;9.95;;;4.55;;
62463;SDS011;48512;48.552;9.380;2022-08-21T08:10:18;9.57;;;4.90;;
62463;SDS011;48512;48.552;9.380;2022-08-21T08:12:44;10.07;;;4.50;;
62463;SDS011;48512;48.552;9.380;2022-08-21T08:15:12;9.70;;;4.60;;
62463;SDS011;48512;48.552;9.380;2022-08-21T08:17:40;9.30;;;4.85;;
62463;SDS011;48512;48.552;9.380;2022-08-21T08:20:06;11.65;;;5.30;;
62463;SDS011;48512;48.552;9.380;2022-08-21T08:22:33;10.10;;;4.80;;
62463;SDS011;48512;48.552;9.380;2022-08-21T08:25:00;10.48;;;5.03;;
62463;SDS011;48512;48.552;9.380;2022-08-21T08:27:26;11.50;;;5.32;;
62463;SDS011;48512;48.552;9.380;2022-08-21T08:29:52;8.38;;;4.50;;
62463;SDS011;48512;48.552;9.380;2022-08-21T08:32:18;10.80;;;5.97;;
62463;SDS011;48512;48.552;9.380;2022-08-21T08:34:44;7.18;;;5.07;;
62463;SDS011;48512;48.552;9.380;2022-08-21T08:37:11;12.93;;;4.60;;
62463;SDS011;48512;48.552;9.380;2022-08-21T08:39:37;10.10;;;4.55;;
62463;SDS011;48512;48.552;9.380;2022-08-21T08:44:31;6.00;;;4.40;;
62463;SDS011;48512;48.552;9.380;2022-08-21T08:46:57;9.73;;;4.72;;
62463;SDS011;48512;48.552;9.380;2022-08-21T08:49:27;10.10;;;4.82;;
62463;SDS011;48512;48.552;9.380;2022-08-21T08:52:17;12.95;;;5.10;;
62463;SDS011;48512;48.552;9.380;2022-08-21T08:54:49;9.15;;;4.72;;
62463;SDS011;48512;48.552;9.380;2022-08-21T08:57:42;9.40;;;4.95;;
62463;SDS011;48512;48.552;9.380;2022-08-21T09:00:14;9.30;;;4.80;;
62463;SDS011;48512;48.552;9.380;2022-08-21T09:02:42;9.15;;;5.03;;
62463;SDS011;48512;48.552;9.380;2022-08-21T09:05:11;11.27;;;5.43;;
62463;SDS011;48512;48.552;9.380;2022-08-21T09:10:21;11.60;;;4.65;;
62463;SDS011;48512;48.552;9.380;2022-08-21T09:28:42;8.93;;;4.20;;
62463;SDS011;48512;48.552;9.380;2022-08-21T09:31:41;8.27;;;4.35;;
62463;SDS011;48512;48.552;9.380;2022-08-21T09:34:10;7.53;;;4.60;;
62463;SDS011;48512;48.552;9.380;2022-08-21T09:36:42;8.35;;;4.78;;
62463;SDS011;48512;48.552;9.380;2022-08-21T09:39:12;10.27;;;5.03;;
62463;SDS011;48512;48.552;9.380;2022-08-21T09:41:49;8.25;;;4.40;;
62463;SDS011;48512;48.552;9.380;2022-08-21T09:44:25;11.40;;;4.50;;
62463;SDS011;48512;48.552;9.380;2022-08-21T09:46:55;9.45;;;4.32;;
62463;SDS011;48512;48.552;9.380;2022-08-21T09:49:31;9.18;;;4.72;;
62463;SDS011;48512;48.552;9.380;2022-08-21T09:51:58;12.82;;;4.13;;
62463;SDS011;48512;48.552;9.380;2022-08-21T09:54:35;8.65;;;4.53;;
62463;SDS011;48512;48.552;9.380;2022-08-21T09:59:53;10.73;;;5.00;;
62463;SDS011;48512;48.552;9.380;2022-08-21T10:02:27;8.75;;;4.30;;
62463;SDS011;48512;48.552;9.380;2022-08-21T10:04:56;11.50;;;4.70;;
62463;SDS011;48512;48.552;9.380;2022-08-21T10:07:25;13.10;;;4.60;;
62463;SDS011;48512;48.552;9.380;2022-08-21T10:10:04;8.40;;;5.00;;
62463;SDS011;48512;48.552;9.380;2022-08-21T10:15:19;9.48;;;4.60;;
62463;SDS011;48512;48.552;9.380;2022-08-21T10:20:34;7.78;;;4.22;;
62463;SDS011;48512;48.552;9.380;2022-08-21T10:25:43;8.13;;;4.18;;
62463;SDS011;48512;48.552;9.380;2022-08-21T10:28:18;8.18;;;4.10;;
62463;SDS011;48512;48.552;9.380;2022-08-21T10:36:01;9.65;;;4.20;;
62463;SDS011;48512;48.552;9.380;2022-08-21T10:46:42;16.77;;;4.50;;
62463;SDS011;48512;48.552;9.380;2022-08-21T10:49:21;9.73;;;4.70;;
62463;SDS011;48512;48.552;9.380;2022-08-21T10:57:47;6.18;;;4.00;;
62463;SDS011;48512;48.552;9.380;2022-08-21T11:05:54;8.27;;;4.10;;
62463;SDS011;48512;48.552;9.380;2022-08-21T11:08:35;6.82;;;3.67;;
62463;SDS011;48512;48.552;9.380;2022-08-21T11:13:51;9.23;;;3.95;;
62463;SDS011;48512;48.552;9.380;2022-08-21T11:19:04;5.72;;;3.28;;
62463;SDS011;48512;48.552;9.380;2022-08-21T11:29:41;6.28;;;3.90;;
62463;SDS011;48512;48.552;9.380;2022-08-21T11:57:01;8.90;;;3.60;;
62463;SDS011;48512;48.552;9.380;2022-08-21T11:59:45;5.28;;;3.47;;
62463;SDS011;48512;48.552;9.380;2022-08-21T12:02:18;7.32;;;3.50;;
62463;SDS011;48512;48.552;9.380;2022-08-21T12:04:48;5.47;;;3.33;;
62463;SDS011;48512;48.552;9.380;2022-08-21T12:07:30;6.15;;;3.60;;
62463;SDS011;48512;48.552;9.380;2022-08-21T12:09:59;5.70;;;3.58;;
62463;SDS011;48512;48.552;9.380;2022-08-21T12:18:04;7.85;;;3.45;;
62463;SDS011;48512;48.552;9.380;2022-08-21T12:25:36;8.25;;;3.60;;
62463;SDS011;48512;48.552;9.380;2022-08-21T12:28:06;5.15;;;3.40;;
62463;SDS011;48512;48.552;9.380;2022-08-21T12:30:36;4.90;;;3.17;;
62463;SDS011;48512;48.552;9.380;2022-08-21T12:33:06;8.25;;;4.00;;
62463;SDS011;48512;48.552;9.380;2022-08-21T12:35:45;6.43;;;3.72;;
62463;SDS011;48512;48.552;9.380;2022-08-21T12:40:50;6.35;;;3.42;;
62463;SDS011;48512;48.552;9.380;2022-08-21T12:43:21;6.82;;;3.30;;
62463;SDS011;48512;48.552;9.380;2022-08-21T12:45:49;6.25;;;3.10;;
62463;SDS011;48512;48.552;9.380;2022-08-21T12:50:45;6.95;;;3.28;;
62463;SDS011;48512;48.552;9.380;2022-08-21T12:53:32;5.63;;;3.33;;
62463;SDS011;48512;48.552;9.380;2022-08-21T12:56:04;7.00;;;3.50;;
62463;SDS011;48512;48.552;9.380;2022-08-21T12:58:34;4.35;;;3.40;;
62463;SDS011;48512;48.552;9.380;2022-08-21T13:01:01;5.97;;;3.33;;
62463;SDS011;48512;48.552;9.380;2022-08-21T13:03:29;8.60;;;3.17;;
62463;SDS011;48512;48.552;9.380;2022-08-21T13:05:57;4.72;;;3.08;;
62463;SDS011;48512;48.552;9.380;2022-08-21T13:08:23;8.15;;;3.40;;
62463;SDS011;48512;48.552;9.380;2022-08-21T13:10:55;6.22;;;3.28;;
62463;SDS011;48512;48.552;9.380;2022-08-21T13:13:24;5.47;;;3.00;;
62463;SDS011;48512;48.552;9.380;2022-08-21T13:15:56;5.23;;;2.97;;
62463;SDS011;48512;48.552;9.380;2022-08-21T13:18:24;8.65;;;3.60;;
62463;SDS011;48512;48.552;9.380;2022-08-21T13:21:01;5.88;;;3.38;;
62463;SDS011;48512;48.552;9.380;2022-08-21T13:23:38;4.35;;;2.90;;
62463;SDS011;48512;48.552;9.380;2022-08-21T13:26:15;5.75;;;3.13;;
62463;SDS011;48512;48.552;9.380;2022-08-21T13:28:42;7.30;;;3.47;;
62463;SDS011;48512;48.552;9.380;2022-08-21T13:31:09;5.97;;;3.13;;
62463;SDS011;48512;48.552;9.380;2022-08-21T13:33:35;4.85;;;2.95;;
62463;SDS011;48512;48.552;9.380;2022-08-21T13:38:33;6.22;;;2.92;;
62463;SDS011;48512;48.552;9.380;2022-08-21T13:43:43;7.13;;;2.88;;
62463;SDS011;48512;48.552;9.380;2022-08-21T13:46:10;7.60;;;3.17;;
62463;SDS011;48512;48.552;9.380;2022-08-21T13:48:38;4.80;;;2.72;;
62463;SDS011;48512;48.552;9.380;2022-08-21T13:51:04;6.97;;;3.05;;
62463;SDS011;48512;48.552;9.380;2022-08-21T13:55:56;7.88;;;2.92;;
62463;SDS011;48512;48.552;9.380;2022-08-21T14:00:52;4.85;;;2.90;;
62463;SDS011;48512;48.552;9.380;2022-08-21T14:03:42;7.60;;;3.13;;
62463;SDS011;48512;48.552;9.380;2022-08-21T14:06:17;4.28;;;3.17;;
62463;SDS011;48512;48.552;9.380;2022-08-21T14:08:49;6.57;;;2.95;;
62463;SDS011;48512;48.552;9.380;2022-08-21T14:11:17;5.00;;;2.85;;
62463;SDS011;48512;48.552;9.380;2022-08-21T14:13:44;6.97;;;3.25;;
62463;SDS011;48512;48.552;9.380;2022-08-21T14:18:50;4.93;;;2.83;;
62463;SDS011;48512;48.552;9.380;2022-08-21T14:21:32;6.30;;;3.28;;
62463;SDS011;48512;48.552;9.380;2022-08-21T14:24:40;4.20;;;2.83;;
62463;SDS011;48512;48.552;9.380;2022-08-21T14:26:57;4.47;;;2.90;;
62463;SDS011;48512;48.552;9.380;2022-08-21T14:29:31;6.55;;;3.13;;
62463;SDS011;48512;48.552;9.380;2022-08-21T14:32:08;5.78;;;3.17;;
62463;SDS011;48512;48.552;9.380;2022-08-21T14:34:44;7.38;;;3.53;;
62463;SDS011;48512;48.552;9.380;2022-08-21T14:37:09;6.82;;;2.90;;
62463;SDS011;48512;48.552;9.380;2022-08-21T14:39:35;4.00;;;2.92;;
62463;SDS011;48512;48.552;9.380;2022-08-21T14:42:00;4.85;;;3.20;;
62463;SDS011;48512;48.552;9.380;2022-08-21T14:44:26;4.63;;;2.75;;
62463;SDS011;48512;48.552;9.380;2022-08-21T14:46:52;5.13;;;3.22;;
62463;SDS011;48512;48.552;9.380;2022-08-21T14:49:18;5.95;;;2.92;;
62463;SDS011;48512;48.552;9.380;2022-08-21T14:51:43;7.22;;;2.78;;
62463;SDS011;48512;48.552;9.380;2022-08-21T14:54:08;4.63;;;2.92;;
62463;SDS011;48512;48.552;9.380;2022-08-21T14:56:34;5.32;;;2.63;;
62463;SDS011;48512;48.552;9.380;2022-08-21T14:59:02;7.40;;;3.13;;
62463;SDS011;48512;48.552;9.380;2022-08-21T15:01:32;5.88;;;2.92;;
62463;SDS011;48512;48.552;9.380;2022-08-21T15:06:25;3.40;;;2.50;;
62463;SDS011;48512;48.552;9.380;2022-08-21T15:08:51;4.43;;;3.33;;
62463;SDS011;48512;48.552;9.380;2022-08-21T15:11:18;4.85;;;2.70;;
62463;SDS011;48512;48.552;9.380;2022-08-21T15:13:44;6.47;;;3.00;;
62463;SDS011;48512;48.552;9.380;2022-08-21T15:16:11;5.43;;;2.90;;
62463;SDS011;48512;48.552;9.380;2022-08-21T15:18:37;6.22;;;2.80;;
62463;SDS011;48512;48.552;9.380;2022-08-21T15:21:03;5.13;;;2.75;;
62463;SDS011;48512;48.552;9.380;2022-08-21T15:23:29;4.63;;;2.65;;
62463;SDS011;48512;48.552;9.380;2022-08-21T15:25:54;5.70;;;2.55;;
62463;SDS011;48512;48.552;9.380;2022-08-21T15:28:22;4.38;;;3.08;;
62463;SDS011;48512;48.552;9.380;2022-08-21T15:30:49;5.80;;;2.88;;
62463;SDS011;48512;48.552;9.380;2022-08-21T15:33:16;7.45;;;3.15;;
62463;SDS011;48512;48.552;9.380;2022-08-21T15:35:42;5.93;;;2.75;;
62463;SDS011;48512;48.552;9.380;2022-08-21T15:38:07;5.15;;;3.10;;
62463;SDS011;48512;48.552;9.380;2022-08-21T15:40:34;5.38;;;3.00;;
62463;SDS011;48512;48.552;9.380;2022-08-21T15:43:01;5.97;;;2.92;;
62463;SDS011;48512;48.552;9.380;2022-08-21T15:47:54;6.38;;;3.30;;
62463;SDS011;48512;48.552;9.380;2022-08-21T15:50:20;5.38;;;2.92;;
62463;SDS011;48512;48.552;9.380;2022-08-21T15:52:46;5.13;;;3.00;;
62463;SDS011;48512;48.552;9.380;2022-08-21T15:55:12;5.00;;;3.17;;
62463;SDS011;48512;48.552;9.380;2022-08-21T15:57:37;6.22;;;3.17;;
62463;SDS011;48512;48.552;9.380;2022-08-21T16:00:13;4.38;;;2.72;;
62463;SDS011;48512;48.552;9.380;2022-08-21T16:02:45;3.63;;;2.72;;
62463;SDS011;48512;48.552;9.380;2022-08-21T16:05:12;4.43;;;2.92;;
62463;SDS011;48512;48.552;9.380;2022-08-21T16:07:41;6.00;;;2.75;;
62463;SDS011;48512;48.552;9.380;2022-08-21T16:10:07;7.05;;;2.70;;
62463;SDS011;48512;48.552;9.380;2022-08-21T16:12:35;4.20;;;2.97;;
62463;SDS011;48512;48.552;9.380;2022-08-21T16:15:05;5.57;;;3.00;;
62463;SDS011;48512;48.552;9.380;2022-08-21T16:17:33;6.38;;;3.30;;
62463;SDS011;48512;48.552;9.380;2022-08-21T16:20:01;5.65;;;3.10;;
62463;SDS011;48512;48.552;9.380;2022-08-21T16:22:29;5.50;;;3.10;;
62463;SDS011;48512;48.552;9.380;2022-08-21T16:24:54;5.40;;;3.10;;
62463;SDS011;48512;48.552;9.380;2022-08-21T16:27:19;5.40;;;3.05;;
62463;SDS011;48512;48.552;9.380;2022-08-21T16:29:45;4.20;;;3.10;;
62463;SDS011;48512;48.552;9.380;2022-08-21T16:32:11;4.13;;;2.92;;
62463;SDS011;48512;48.552;9.380;2022-08-21T16:34:39;4.13;;;2.92;;
62463;SDS011;48512;48.552;9.380;2022-08-21T16:37:10;5.85;;;3.45;;
62463;SDS011;48512;48.552;9.380;2022-08-21T16:39:36;5.30;;;2.90;;
62463;SDS011;48512;48.552;9.380;2022-08-21T16:42:01;6.65;;;3.33;;
62463;SDS011;48512;48.552;9.380;2022-08-21T16:44:27;6.82;;;3.10;;
62463;SDS011;48512;48.552;9.380;2022-08-21T16:46:52;10.85;;;5.03;;
62463;SDS011;48512;48.552;9.380;2022-08-21T16:49:18;7.10;;;3.30;;
62463;SDS011;48512;48.552;9.380;2022-08-21T16:51:43;7.05;;;3.15;;
62463;SDS011;48512;48.552;9.380;2022-08-21T16:54:09;4.50;;;2.90;;
62463;SDS011;48512;48.552;9.380;2022-08-21T16:56:35;4.82;;;2.83;;
62463;SDS011;48512;48.552;9.380;2022-08-21T16:59:01;5.15;;;2.90;;
62463;SDS011;48512;48.552;9.380;2022-08-21T17:01:29;8.27;;;2.97;;
62463;SDS011;48512;48.552;9.380;2022-08-21T17:03:57;7.45;;;3.15;;
62463;SDS011;48512;48.552;9.380;2022-08-21T17:06:22;4.57;;;2.92;;
62463;SDS011;48512;48.552;9.380;2022-08-21T17:08:49;6.95;;;3.20;;
62463;SDS011;48512;48.552;9.380;2022-08-21T17:11:22;6.68;;;3.10;;
62463;SDS011;48512;48.552;9.380;2022-08-21T17:13:52;4.22;;;2.65;;